Time;durP1;ratioP1;P1;durP2;ratioP2;P2;SDS_P1;SDS_P2;PMS_P1;PMS_P2;Temp;Humidity;BMP_temperature;BMP_pressure;BME280_temperature;BME280_humidity;BME280_pressure;Samples;Min_cycle;Max_cycle;Signal;HPM_P1;HPM_P2
2022/04/22 00:00:30;;;;;;;18.90;11.60;;;;;;;12.02;59.49;99192.53;5004055;28;20041;-91
2022/04/22 00:02:56;;;;;;;21.02;13.10;;;;;;;12.11;59.90;99212.41;4987678;28;20151;-92
2022/04/22 00:05:22;;;;;;;18.75;12.27;;;;;;;12.09;59.97;99213.78;5003764;28;20049;-91
2022/04/22 00:07:48;;;;;;;19.27;11.20;;;;;;;12.04;59.24;99192.25;5019723;28;20087;-91
2022/04/22 00:10:15;;;;;;;21.42;12.55;;;;;;;12.10;59.92;99199.22;5003685;28;20037;-91
2022/04/22 00:12:43;;;;;;;19.65;11.63;;;;;;;12.23;59.38;99206.66;4988074;28;20061;-92
2022/04/22 00:15:09;;;;;;;15.45;10.95;;;;;;;12.24;59.55;99207.44;5003944;28;20022;-91
2022/04/22 00:17:35;;;;;;;17.00;10.73;;;;;;;12.28;59.35;99205.78;5019757;28;20041;-92
2022/04/22 00:20:03;;;;;;;15.32;9.02;;;;;;;12.31;58.85;99213.34;5002547;28;20057;-92
2022/04/22 00:22:28;;;;;;;8.68;7.22;;;;;;;12.29;58.82;99208.22;5019752;28;20036;-91
2022/04/22 00:24:55;;;;;;;10.15;6.80;;;;;;;12.31;58.15;99211.44;4987249;28;20116;-92
2022/04/22 00:27:20;;;;;;;23.67;9.20;;;;;;;12.33;58.58;99211.97;5019949;28;20124;-92
2022/04/22 00:29:46;;;;;;;18.55;10.45;;;;;;;12.26;59.49;99211.47;4985912;28;20128;-92
2022/04/22 00:32:12;;;;;;;13.15;8.60;;;;;;;12.32;59.46;99204.13;5019443;28;20022;-92
2022/04/22 00:34:38;;;;;;;11.50;8.88;;;;;;;12.39;59.45;99206.50;5003624;28;20034;-92
2022/04/22 00:37:05;;;;;;;11.32;8.98;;;;;;;12.40;59.47;99198.13;5003650;28;20427;-92
2022/04/22 00:39:32;;;;;;;23.50;12.75;;;;;;;12.36;59.33;99197.06;5002667;28;20033;-93
2022/04/22 00:42:07;;;;;;;17.98;12.82;;;;;;;12.39;60.09;99207.31;4987588;28;20064;-92
2022/04/22 00:44:35;;;;;;;19.67;12.75;;;;;;;12.31;59.87;99199.84;4988666;28;20053;-92
2022/04/22 00:47:00;;;;;;;16.92;12.32;;;;;;;12.33;57.85;99197.66;5036754;28;20507;-92
2022/04/22 00:49:27;;;;;;;17.92;11.55;;;;;;;12.43;58.55;99218.34;4987623;28;20026;-92
2022/04/22 00:51:53;;;;;;;19.63;11.82;;;;;;;12.41;58.26;99209.72;4986100;28;20037;-92
2022/04/22 00:54:20;;;;;;;14.95;11.02;;;;;;;12.42;58.07;99204.03;5019331;28;20025;-91
2022/04/22 00:56:47;;;;;;;18.75;11.13;;;;;;;12.49;58.51;99209.09;5019222;28;20072;-92
2022/04/22 00:59:13;;;;;;;15.45;10.02;;;;;;;12.40;58.96;99189.22;5036293;28;20037;-93
2022/04/22 01:01:39;;;;;;;12.18;8.88;;;;;;;12.45;58.78;99206.19;5001885;28;20029;-93
2022/04/22 01:09:49;;;;;;;11.65;8.32;;;;;;;12.46;59.39;99196.97;5008468;28;20569;-92
2022/04/22 01:12:18;;;;;;;11.25;8.15;;;;;;;12.41;59.14;99194.34;5021360;28;20053;-93
2022/04/22 01:14:48;;;;;;;15.40;9.43;;;;;;;12.45;59.32;99199.97;5019716;28;20056;-92
2022/04/22 01:17:15;;;;;;;12.90;9.32;;;;;;;12.46;59.96;99202.38;5019240;28;20013;-93
2022/04/22 01:19:41;;;;;;;14.30;9.70;;;;;;;12.42;60.06;99201.34;5018732;28;20029;-93
2022/04/22 01:22:08;;;;;;;21.35;11.35;;;;;;;12.45;60.45;99197.25;5000999;28;20552;-92
2022/04/22 01:24:35;;;;;;;21.40;11.13;;;;;;;12.49;60.14;99201.81;5035600;28;20026;-93
2022/04/22 01:27:01;;;;;;;28.73;13.40;;;;;;;12.40;59.70;99183.81;4986994;28;20123;-93
2022/04/22 01:29:41;;;;;;;38.05;14.80;;;;;;;12.51;59.44;99198.81;5019333;28;20104;-92
2022/04/22 01:32:07;;;;;;;26.88;13.25;;;;;;;12.49;59.63;99201.00;5002176;28;20076;-93
2022/04/22 01:34:38;;;;;;;23.00;11.50;;;;;;;12.45;59.32;99203.50;5001908;28;20041;-91
2022/04/22 01:37:08;;;;;;;20.50;10.68;;;;;;;12.40;59.72;99206.22;5036276;28;20026;-92
2022/04/22 01:39:35;;;;;;;22.17;9.98;;;;;;;12.37;59.55;99198.69;5035384;28;20072;-91
2022/04/22 01:42:01;;;;;;;19.30;10.07;;;;;;;12.42;59.98;99211.34;5001430;28;20091;-92
2022/04/22 01:44:29;;;;;;;19.35;10.90;;;;;;;12.24;61.92;99197.47;5004459;28;20060;-91
2022/04/22 01:46:55;;;;;;;15.98;10.55;;;;;;;12.16;62.01;99208.06;5006993;28;20179;-91
2022/04/22 01:49:20;;;;;;;17.35;10.93;;;;;;;12.05;62.24;99191.94;5023110;28;20484;-94
2022/04/22 01:51:46;;;;;;;27.58;11.63;;;;;;;12.11;61.98;99198.91;4989667;28;20025;-92
2022/04/22 01:54:14;;;;;;;17.38;11.30;;;;;;;12.11;62.35;99198.13;5022725;28;20037;-92
2022/04/22 01:56:39;;;;;;;16.83;10.20;;;;;;;11.96;62.59;99182.06;5005110;28;20100;-92
2022/04/22 01:59:05;;;;;;;13.50;9.90;;;;;;;12.08;62.19;99191.38;5005902;28;20104;-91
2022/04/22 02:01:31;;;;;;;17.05;9.93;;;;;;;12.05;62.31;99191.94;4990112;28;20435;-91
2022/04/22 02:03:56;;;;;;;17.67;11.25;;;;;;;12.01;62.93;99188.19;5006295;28;20030;-92
2022/04/22 02:06:22;;;;;;;15.52;10.30;;;;;;;12.03;62.49;99185.22;4988584;28;20410;-92
2022/04/22 02:08:49;;;;;;;20.67;10.75;;;;;;;12.05;62.62;99177.66;5022657;28;20029;-91
2022/04/22 02:11:15;;;;;;;21.38;11.15;;;;;;;11.90;63.08;99176.69;5006009;28;20395;-93
2022/04/22 02:13:40;;;;;;;21.02;11.32;;;;;;;11.93;62.91;99184.22;4989438;28;20026;-92
2022/04/22 02:16:07;;;;;;;15.40;10.98;;;;;;;11.91;63.37;99170.22;4989268;28;20056;-92
2022/04/22 02:18:36;;;;;;;16.75;11.30;;;;;;;11.84;62.87;99150.81;5006502;28;20026;-91
2022/04/22 02:21:04;;;;;;;19.17;11.75;;;;;;;11.98;62.64;99163.69;5006364;28;20022;-91
2022/04/22 02:23:31;;;;;;;17.77;12.68;;;;;;;11.86;62.89;99137.03;5006761;28;20013;-92
2022/04/22 02:25:58;;;;;;;12.80;10.32;;;;;;;11.97;61.55;99138.56;5004846;28;20109;-92
2022/04/22 02:28:35;;;;;;;13.20;8.50;;;;;;;12.04;61.22;99154.47;5038488;28;20029;-91
2022/04/22 02:31:09;;;;;;;14.43;9.57;;;;;;;12.06;61.90;99155.00;5007407;28;20128;-92
2022/04/22 02:33:37;;;;;;;10.38;7.47;;;;;;;12.00;59.19;99148.03;5006127;28;20416;-92
2022/04/22 02:36:03;;;;;;;9.50;7.20;;;;;;;12.14;60.86;99165.19;5006059;28;20036;-92
2022/04/22 02:38:29;;;;;;;10.13;7.80;;;;;;;12.11;60.73;99150.34;4989744;28;20024;-91
2022/04/22 02:46:52;;;;;;;12.10;8.02;;;;;;;12.34;59.91;99156.06;4988493;28;20145;-92
2022/04/22 02:49:18;;;;;;;11.20;8.38;;;;;;;12.25;61.95;99142.38;4980572;28;20409;-92
2022/04/22 02:51:48;;;;;;;14.13;8.88;;;;;;;12.25;62.18;99150.47;4981419;28;20503;-94
2022/04/22 02:54:14;;;;;;;11.95;8.50;;;;;;;12.13;62.36;99137.34;4997566;28;20089;-92
2022/04/22 02:56:40;;;;;;;12.05;7.90;;;;;;;12.15;62.39;99152.47;4981391;28;20027;-92
2022/04/22 02:59:07;;;;;;;14.63;9.68;;;;;;;12.07;63.16;99146.59;4997255;28;20035;-92
2022/04/22 03:01:34;;;;;;;14.35;9.25;;;;;;;12.08;63.04;99150.91;4997740;28;20054;-93
2022/04/22 03:04:01;;;;;;;17.55;8.70;;;;;;;12.08;62.72;99155.50;4981620;28;20030;-93
2022/04/22 03:06:28;;;;;;;10.73;8.30;;;;;;;12.19;62.87;99169.72;4981798;28;20042;-93
2022/04/22 03:08:54;;;;;;;12.13;8.75;;;;;;;12.08;63.49;99158.22;4997789;28;20121;-93
2022/04/22 03:11:21;;;;;;;15.18;10.55;;;;;;;12.18;63.56;99163.53;4979830;28;20612;-92
2022/04/22 03:13:50;;;;;;;14.80;9.65;;;;;;;12.16;63.60;99156.78;4965709;28;20026;-92
2022/04/22 03:16:20;;;;;;;16.33;9.57;;;;;;;12.05;63.99;99156.84;4981614;28;20535;-93
2022/04/22 03:18:46;;;;;;;15.80;9.88;;;;;;;12.06;63.89;99157.69;4989146;28;20016;-93
2022/04/22 03:21:14;;;;;;;14.52;9.07;;;;;;;12.02;63.97;99154.75;5020998;28;20068;-92
2022/04/22 03:23:39;;;;;;;18.70;9.35;;;;;;;12.08;64.66;99150.91;5020107;28;20026;-91
2022/04/22 03:26:05;;;;;;;22.77;11.32;;;;;;;12.00;64.83;99156.13;4988928;28;20087;-92
2022/04/22 03:28:31;;;;;;;18.77;11.57;;;;;;;11.97;65.38;99148.56;4989091;28;20029;-92
2022/04/22 03:30:58;;;;;;;20.00;10.75;;;;;;;11.94;66.73;99139.16;5004873;28;20487;-92
2022/04/22 03:33:25;;;;;;;19.00;11.00;;;;;;;11.82;66.25;99139.50;5019394;28;20029;-92
2022/04/22 03:35:50;;;;;;;20.27;13.15;;;;;;;11.80;66.74;99141.66;5004875;28;20037;-93
2022/04/22 03:38:18;;;;;;;18.33;12.10;;;;;;;11.86;67.55;99134.34;4988224;28;20140;-92
2022/04/22 03:40:47;;;;;;;22.15;11.77;;;;;;;11.95;66.85;99131.88;5004502;28;20018;-92
2022/04/22 03:43:13;;;;;;;18.40;13.95;;;;;;;11.85;66.77;99128.16;5003176;28;20052;-92
2022/04/22 03:45:39;;;;;;;18.95;13.18;;;;;;;11.81;68.19;99120.91;4988683;28;20534;-93
2022/04/22 03:48:09;;;;;;;18.02;11.27;;;;;;;11.85;68.37;99121.94;5003806;28;20103;-92
2022/04/22 03:50:37;;;;;;;12.32;9.65;;;;;;;11.96;68.39;99128.88;5022294;28;20009;-92
2022/04/22 03:53:05;;;;;;;11.93;9.10;;;;;;;11.97;68.89;99132.38;5018578;28;20033;-92
2022/04/22 03:55:32;;;;;;;15.32;11.32;;;;;;;11.78;70.52;99116.84;5003467;28;20025;-92
2022/04/22 03:58:12;;;;;;;17.20;12.60;;;;;;;11.74;71.16;99113.13;5020714;28;20029;-92
2022/04/22 04:00:45;;;;;;;19.70;12.40;;;;;;;11.87;70.13;99115.19;4991818;28;20028;-92
2022/04/22 04:03:40;;;;;;;17.45;12.18;;;;;;;11.84;70.57;99114.94;5004108;28;20091;-92
2022/04/22 04:06:07;;;;;;;23.45;13.85;;;;;;;11.77;70.78;99098.28;4963792;28;20385;-93
2022/04/22 04:08:33;;;;;;;42.50;33.63;;;;;;;11.70;71.19;99109.38;4980986;28;20046;-92
2022/04/22 04:16:24;;;;;;;12.63;8.13;;;;;;;11.82;69.87;99136.78;4981227;28;20045;-92
2022/04/22 04:18:50;;;;;;;8.38;6.97;;;;;;;11.72;68.70;99131.47;4980195;28;20030;-93
2022/04/22 04:24:00;;;;;;;9.43;6.78;;;;;;;11.96;68.50;99160.47;4983066;28;20036;-93
2022/04/22 04:26:29;;;;;;;16.92;7.10;;;;;;;11.92;68.80;99155.63;4979678;28;20029;-93
2022/04/22 04:28:58;;;;;;;9.70;6.28;;;;;;;11.97;69.23;99153.97;4996104;28;20030;-93
2022/04/22 04:31:24;;;;;;;15.68;9.02;;;;;;;11.96;70.84;99168.56;4993342;28;20042;-93
2022/04/22 04:33:50;;;;;;;17.15;9.27;;;;;;;11.88;70.71;99145.66;4995682;28;20116;-92
2022/04/22 04:36:17;;;;;;;12.90;8.68;;;;;;;11.96;70.79;99157.78;4987473;28;20037;-93
2022/04/22 04:38:44;;;;;;;13.77;10.10;;;;;;;12.02;71.17;99165.53;5002417;28;20415;-93
2022/04/22 04:41:12;;;;;;;14.80;8.80;;;;;;;12.00;70.41;99154.22;5035305;28;20044;-92
2022/04/22 04:43:38;;;;;;;11.05;8.48;;;;;;;12.03;69.50;99155.53;4987381;28;20132;-91
2022/04/22 04:46:03;;;;;;;13.35;8.43;;;;;;;12.08;69.97;99142.81;4986434;28;20061;-92
2022/04/22 04:48:29;;;;;;;15.60;10.43;;;;;;;11.95;71.15;99143.44;4986943;28;20086;-91
2022/04/22 04:50:55;;;;;;;16.70;10.32;;;;;;;11.92;71.63;99146.72;5002626;28;20033;-93
2022/04/22 04:53:25;;;;;;;14.40;10.82;;;;;;;11.90;70.79;99141.59;5018572;28;20024;-91
2022/04/22 04:55:52;;;;;;;16.13;10.98;;;;;;;12.01;70.58;99145.03;5016985;28;20037;-92
2022/04/22 04:58:18;;;;;;;17.70;9.30;;;;;;;12.09;70.45;99141.72;5017187;28;20061;-92
2022/04/22 05:00:46;;;;;;;15.70;9.45;;;;;;;12.11;70.20;99142.22;4983902;28;20113;-93
2022/04/22 05:03:12;;;;;;;16.42;11.27;;;;;;;12.06;71.30;99130.69;4984385;28;20022;-91
2022/04/22 05:05:37;;;;;;;20.42;12.93;;;;;;;12.00;71.22;99123.75;4985361;28;20021;-93
2022/04/22 05:08:05;;;;;;;24.27;14.20;;;;;;;12.08;70.92;99133.91;4987731;28;20025;-92
2022/04/22 05:10:31;;;;;;;19.00;12.77;;;;;;;11.86;71.16;99126.25;5004948;28;20148;-92
2022/04/22 05:12:57;;;;;;;16.88;9.95;;;;;;;12.02;70.14;99143.16;4986703;28;20025;-91
2022/04/22 05:15:23;;;;;;;11.98;8.82;;;;;;;12.09;70.00;99157.09;4987057;28;20077;-93
2022/04/22 05:17:49;;;;;;;15.77;10.32;;;;;;;12.10;70.23;99173.03;4986458;28;20415;-92
2022/04/22 05:20:15;;;;;;;13.68;9.82;;;;;;;12.15;70.40;99176.75;4987518;28;20032;-93
2022/04/22 05:22:41;;;;;;;16.77;10.25;;;;;;;12.06;70.87;99160.38;4985561;28;20021;-93
2022/04/22 05:25:08;;;;;;;17.52;10.10;;;;;;;12.09;71.13;99165.19;4987974;28;20036;-94
2022/04/22 05:27:34;;;;;;;15.27;10.45;;;;;;;12.03;72.22;99163.63;4987590;28;20033;-93
2022/04/22 05:32:47;;;;;;;22.05;9.70;;;;;;;12.07;72.17;99165.47;5007973;28;20055;-92
2022/04/22 05:35:13;;;;;;;13.30;8.63;;;;;;;12.16;72.48;99156.78;4988043;28;20022;-93
2022/04/22 05:37:43;;;;;;;15.35;9.18;;;;;;;12.17;71.80;99159.19;4989178;28;20021;-93
2022/04/22 05:40:10;;;;;;;11.27;7.50;;;;;;;12.33;71.42;99174.16;4999404;28;20576;-93
2022/04/22 05:42:38;;;;;;;12.00;7.50;;;;;;;12.32;71.29;99161.72;4984239;28;20048;-93
2022/04/22 05:45:07;;;;;;;13.35;9.45;;;;;;;12.29;71.94;99166.91;5009813;28;20046;-94
2022/04/22 05:47:33;;;;;;;15.77;9.27;;;;;;;12.36;71.99;99171.97;5002905;28;20025;-94
2022/04/22 05:49:58;;;;;;;16.23;11.77;;;;;;;12.28;72.56;99179.59;5003352;28;20032;-94
2022/04/22 05:52:27;;;;;;;19.85;13.38;;;;;;;12.29;72.39;99192.00;5003344;28;20033;-94
2022/04/22 05:54:53;;;;;;;22.63;15.20;;;;;;;12.35;72.14;99195.47;5003897;28;20018;-93
2022/04/22 05:57:19;;;;;;;22.38;16.13;;;;;;;12.43;72.08;99210.25;5003418;28;20475;-93
2022/04/22 05:59:45;;;;;;;26.90;15.73;;;;;;;12.45;72.28;99205.34;5002355;28;20025;-94
2022/04/22 06:02:11;;;;;;;23.42;12.40;;;;;;;12.51;72.48;99209.63;5002188;28;20427;-93
2022/04/22 06:04:36;;;;;;;19.85;10.93;;;;;;;12.52;72.51;99205.84;5002794;28;20025;-92
2022/04/22 06:07:02;;;;;;;21.38;14.55;;;;;;;12.59;72.76;99210.91;5002656;28;20028;-93
2022/04/22 06:12:13;;;;;;;23.88;17.40;;;;;;;12.25;72.27;99199.06;5018613;28;20113;-88
2022/04/22 06:14:39;;;;;;;14.32;11.40;;;;;;;12.23;71.71;99181.56;4999255;28;20485;-88
2022/04/22 06:17:05;;;;;;;13.52;10.70;;;;;;;12.34;71.90;99220.84;5015709;28;20025;-88
2022/04/22 06:19:30;;;;;;;15.30;11.20;;;;;;;12.29;71.53;99207.41;5031253;28;20036;-88
2022/04/22 06:21:56;;;;;;;15.52;10.57;;;;;;;12.30;71.85;99207.09;4999111;28;20053;-88
2022/04/22 06:24:21;;;;;;;15.90;10.85;;;;;;;12.44;71.53;99223.47;5016430;28;20033;-88
2022/04/22 06:26:47;;;;;;;14.57;9.63;;;;;;;12.47;71.03;99206.72;5015805;28;20035;-87
2022/04/22 06:29:13;;;;;;;18.05;10.77;;;;;;;12.46;71.42;99204.28;4998767;28;20017;-87
2022/04/22 06:31:39;;;;;;;15.68;11.80;;;;;;;12.47;71.01;99201.31;5020631;28;20026;-89
2022/04/22 06:34:04;;;;;;;15.55;11.60;;;;;;;12.66;71.56;99225.69;5021188;28;20024;-87
2022/04/22 06:36:30;;;;;;;17.35;11.52;;;;;;;12.68;71.88;99255.13;5037505;28;20036;-89
2022/04/22 06:38:59;;;;;;;18.52;11.77;;;;;;;12.58;72.79;99226.31;5037483;28;20034;-91
2022/04/22 06:46:54;;;;;;;19.52;12.35;;;;;;;12.68;72.10;99231.63;5024635;28;20036;-89
2022/04/22 06:49:20;;;;;;;24.00;16.10;;;;;;;12.61;72.76;99223.03;5019697;28;20463;-88
2022/04/22 06:51:45;;;;;;;21.70;16.10;;;;;;;12.49;72.38;99206.41;5019104;28;20025;-88
2022/04/22 06:54:11;;;;;;;17.63;13.18;;;;;;;12.64;72.01;99210.88;5036858;28;20026;-86
2022/04/22 06:56:39;;;;;;;17.77;13.32;;;;;;;12.66;72.23;99208.69;5036717;28;20151;-87
2022/04/22 06:59:05;;;;;;;18.85;13.30;;;;;;;12.78;71.79;99206.38;5036505;28;20060;-89
2022/04/22 07:01:31;;;;;;;20.65;14.40;;;;;;;12.85;71.57;99209.56;5037517;28;20056;-89
2022/04/22 07:03:57;;;;;;;17.73;12.18;;;;;;;12.92;72.36;99223.50;5003944;28;20053;-87
2022/04/22 07:06:22;;;;;;;20.58;12.10;;;;;;;12.89;72.09;99212.50;5036136;28;20028;-88
2022/04/22 07:08:49;;;;;;;22.70;12.02;;;;;;;13.10;72.67;99224.66;5038260;28;20068;-87
2022/04/22 07:11:28;;;;;;;21.98;12.18;;;;;;;13.23;72.56;99220.44;5036273;28;20025;-88
2022/04/22 07:13:54;;;;;;;19.40;12.57;;;;;;;13.25;72.81;99203.94;5036566;28;20048;-86
2022/04/22 07:16:20;;;;;;;25.05;14.38;;;;;;;13.26;73.21;99195.56;5019285;28;20030;-87
2022/04/22 07:18:45;;;;;;;26.20;14.77;;;;;;;13.26;73.12;99187.44;5018929;28;20057;-88
2022/04/22 07:21:11;;;;;;;21.75;15.02;;;;;;;13.15;74.33;99180.53;5003032;28;20017;-89
2022/04/22 07:23:37;;;;;;;21.45;15.38;;;;;;;13.09;73.89;99179.00;5035471;28;20140;-88
2022/04/22 07:26:04;;;;;;;20.30;14.80;;;;;;;13.19;74.08;99176.16;5018949;28;20101;-86
2022/04/22 07:28:29;;;;;;;23.95;15.60;;;;;;;12.94;74.29;99163.78;5035211;28;20103;-88
2022/04/22 07:30:55;;;;;;;22.52;15.13;;;;;;;13.11;73.31;99157.88;5035746;28;20026;-87
2022/04/22 07:33:21;;;;;;;22.55;16.05;;;;;;;13.22;73.42;99159.38;5019438;28;20042;-88
2022/04/22 07:35:47;;;;;;;24.38;16.23;;;;;;;13.35;72.95;99160.56;5035535;28;20032;-87
2022/04/22 07:38:13;;;;;;;22.25;14.38;;;;;;;13.26;73.14;99146.88;5022471;28;20553;-92
2022/04/22 07:40:40;;;;;;;25.38;14.07;;;;;;;13.33;73.40;99146.53;5019703;28;20480;-92
2022/04/22 07:48:34;;;;;;;24.00;14.63;;;;;;;13.45;73.17;99119.84;5015925;28;20043;-92
2022/04/22 07:50:59;;;;;;;21.42;14.88;;;;;;;13.42;73.21;99098.78;4999895;28;20049;-92
2022/04/22 07:53:24;;;;;;;19.02;13.88;;;;;;;13.49;73.04;99093.84;5000073;28;20037;-93
2022/04/22 07:55:50;;;;;;;21.40;14.93;;;;;;;13.57;73.64;99051.75;4999911;28;20507;-92
2022/04/22 07:58:17;;;;;;;19.73;11.63;;;;;;;13.62;71.90;99021.13;4998935;28;20026;-92
2022/04/22 08:00:44;;;;;;;19.33;9.07;;;;;;;13.63;70.56;99012.69;5017313;28;20515;-93
2022/04/22 08:03:13;;;;;;;13.38;10.38;;;;;;;13.87;69.28;99023.38;5016590;28;20097;-94
2022/04/22 08:05:39;;;;;;;13.70;8.25;;;;;;;14.05;68.43;99031.72;5000849;28;20060;-92
2022/04/22 08:08:05;;;;;;;14.90;6.82;;;;;;;14.26;67.97;99038.34;5016599;28;20026;-89
2022/04/22 08:10:34;;;;;;;12.38;4.65;;;;;;;14.55;66.53;99035.34;5016340;28;20045;-93
2022/04/22 08:13:00;;;;;;;11.68;5.55;;;;;;;14.41;66.12;99029.13;5016480;28;20400;-92
2022/04/22 08:15:26;;;;;;;11.10;5.78;;;;;;;14.47;65.96;99025.19;5000538;28;20038;-93
2022/04/22 08:17:51;;;;;;;15.70;5.20;;;;;;;14.74;65.71;99010.81;5015620;28;20104;-93
2022/04/22 08:20:17;;;;;;;22.40;10.00;;;;;;;14.86;64.88;98994.03;5001011;28;20033;-93
2022/04/22 08:22:44;;;;;;;23.20;10.38;;;;;;;15.05;64.88;99002.00;5016311;28;20029;-92
2022/04/22 08:25:30;;;;;;;16.83;6.70;;;;;;;15.22;64.52;99012.19;5000286;28;20040;-93
2022/04/22 08:28:03;;;;;;;10.52;5.00;;;;;;;15.22;63.18;99000.53;4941569;29;20050;-94
2022/04/22 08:30:31;;;;;;;10.38;5.30;;;;;;;15.46;62.94;98997.50;4941830;29;20548;-87
2022/04/22 08:32:57;;;;;;;9.77;5.00;;;;;;;15.52;62.54;99002.50;4938318;29;20039;-89
2022/04/22 08:35:23;;;;;;;13.80;4.50;;;;;;;15.75;61.77;98988.94;4956161;29;20482;-89
2022/04/22 08:37:49;;;;;;;9.90;4.47;;;;;;;15.78;62.71;98971.19;4942304;29;20047;-88
2022/04/22 08:40:15;;;;;;;12.05;4.95;;;;;;;15.99;60.86;98979.59;4938997;29;20031;-88
2022/04/22 08:42:41;;;;;;;11.85;4.93;;;;;;;16.14;61.76;98965.56;4924183;29;20393;-88
2022/04/22 08:45:08;;;;;;;11.40;4.28;;;;;;;16.15;61.05;98948.97;4922869;29;20063;-88
2022/04/22 08:50:20;;;;;;;12.82;4.63;;;;;;;16.43;61.11;98945.19;4929318;29;20042;-88
2022/04/22 08:53:22;;;;;;;12.73;4.70;;;;;;;16.52;61.03;98951.44;4922547;29;20498;-88
2022/04/22 08:55:50;;;;;;;12.63;5.20;;;;;;;16.67;61.48;98942.00;4909914;29;20421;-87
2022/04/22 08:58:23;;;;;;;10.35;4.97;;;;;;;16.77;61.10;98926.19;4959802;28;20049;-91
2022/04/22 09:00:49;;;;;;;12.27;4.20;;;;;;;16.87;60.38;98929.72;5019275;28;20107;-92
2022/04/22 09:03:15;;;;;;;10.25;4.20;;;;;;;16.84;59.47;98914.06;5004233;28;20034;-93
2022/04/22 09:05:41;;;;;;;11.88;4.60;;;;;;;17.00;57.97;98926.03;5003811;28;20027;-92
2022/04/22 09:08:08;;;;;;;13.15;4.28;;;;;;;17.16;57.92;98926.31;5036632;28;20021;-93
2022/04/22 09:10:35;;;;;;;9.82;5.30;;;;;;;17.11;57.59;98910.97;5018478;28;20033;-92
2022/04/22 09:13:03;;;;;;;10.80;4.32;;;;;;;17.32;57.15;98924.69;5003281;28;20128;-92
2022/04/22 09:15:31;;;;;;;9.52;4.90;;;;;;;17.45;58.05;98932.97;5019759;28;20031;-92
2022/04/22 09:17:58;;;;;;;8.10;3.90;;;;;;;17.49;56.88;98928.47;5003510;28;20116;-90
2022/04/22 09:20:28;;;;;;;11.05;3.40;;;;;;;17.49;55.97;98918.41;5018608;28;20538;-91
2022/04/22 09:22:56;;;;;;;15.98;4.18;;;;;;;17.40;56.64;98911.38;5001587;28;20124;-92
2022/04/22 09:25:22;;;;;;;9.20;3.00;;;;;;;17.14;55.48;98904.88;5018959;28;20474;-91
2022/04/22 09:27:48;;;;;;;8.15;3.15;;;;;;;17.39;55.09;98902.44;5002325;28;20115;-91
2022/04/22 09:30:18;;;;;;;10.45;3.67;;;;;;;17.54;54.54;98912.78;5018898;28;20036;-90
2022/04/22 09:32:45;;;;;;;12.00;3.47;;;;;;;17.63;54.13;98918.19;5017119;28;20061;-92
2022/04/22 09:35:10;;;;;;;13.00;4.78;;;;;;;17.93;55.69;98926.44;5003030;28;20025;-91
2022/04/22 09:43:45;;;;;;;27.90;5.15;;;;;;;18.27;53.98;98902.81;5019916;28;20091;-88
2022/04/22 09:46:22;;;;;;;12.75;3.42;;;;;;;18.52;51.25;98915.44;5016136;28;20408;-88
2022/04/22 09:48:47;;;;;;;19.17;4.93;;;;;;;18.35;51.95;98907.41;5034095;28;20041;-88
2022/04/22 09:51:22;;;;;;;9.18;2.70;;;;;;;18.53;50.27;98906.16;5016241;28;20021;-88
2022/04/22 09:53:48;;;;;;;8.88;2.72;;;;;;;18.62;51.06;98906.06;5016413;28;20025;-88
2022/04/22 09:56:16;;;;;;;8.15;2.42;;;;;;;18.78;50.80;98900.81;5016964;28;20044;-88
2022/04/22 09:58:42;;;;;;;12.43;3.08;;;;;;;18.92;51.08;98911.47;5017699;28;20049;-93
2022/04/22 10:01:07;;;;;;;18.92;3.33;;;;;;;18.87;50.42;98898.03;5003053;28;20028;-91
2022/04/22 10:03:36;;;;;;;10.93;3.47;;;;;;;18.62;48.80;98903.34;5018498;28;20026;-92
2022/04/22 10:06:02;;;;;;;16.83;3.63;;;;;;;18.53;50.02;98886.25;5020171;28;20021;-88
2022/04/22 10:08:35;;;;;;;17.45;3.70;;;;;;;18.60;48.84;98872.91;5022701;28;20015;-92
2022/04/22 10:11:01;;;;;;;15.85;3.25;;;;;;;18.68;47.12;98879.41;5022643;28;20026;-91
2022/04/22 10:13:46;;;;;;;10.90;3.28;;;;;;;18.90;43.38;98913.72;5037721;28;20044;-92
2022/04/22 10:16:12;;;;;;;16.90;3.25;;;;;;;18.79;43.38;98899.69;5006189;28;20021;-91
2022/04/22 10:18:38;;;;;;;11.10;3.33;;;;;;;18.86;41.50;98893.69;5006134;28;20021;-91
2022/04/22 10:21:04;;;;;;;9.80;3.33;;;;;;;18.91;43.35;98894.28;5023617;28;20097;-91
2022/04/22 10:23:30;;;;;;;14.30;3.50;;;;;;;19.00;43.59;98905.13;5039684;28;20444;-92
2022/04/22 10:25:56;;;;;;;12.55;3.35;;;;;;;18.96;41.94;98888.63;5021660;28;20045;-93
2022/04/22 10:28:23;;;;;;;9.80;3.20;;;;;;;18.75;42.41;98896.03;5021915;28;20017;-92
2022/04/22 10:30:48;;;;;;;11.20;3.38;;;;;;;18.95;41.24;98899.88;5022498;28;20029;-92
2022/04/22 10:33:14;;;;;;;10.65;3.30;;;;;;;18.87;42.50;98892.59;5022867;28;20018;-92
2022/04/22 10:35:41;;;;;;;15.45;3.13;;;;;;;18.80;41.09;98887.69;5005409;28;20022;-91
2022/04/22 10:38:30;;;;;;;19.92;5.30;;;;;;;18.93;41.42;98904.88;5022018;28;20124;-93
2022/04/22 10:40:56;;;;;;;10.27;3.00;;;;;;;18.45;41.91;98887.13;5011333;28;20037;-92
2022/04/22 10:43:24;;;;;;;10.05;3.38;;;;;;;18.49;41.67;98888.88;5022995;28;20028;-93
2022/04/22 10:48:39;;;;;;;12.98;3.25;;;;;;;18.38;41.75;98882.19;5026412;28;20025;-93
2022/04/22 10:51:05;;;;;;;11.52;3.10;;;;;;;18.09;42.64;98863.97;5039002;28;20029;-93
2022/04/22 10:53:35;;;;;;;12.57;3.40;;;;;;;18.11;43.62;98880.78;5020777;28;20121;-91
2022/04/22 10:56:30;;;;;;;11.52;3.33;;;;;;;18.13;42.59;98903.84;5006069;28;20044;-90
2022/04/22 10:59:21;;;;;;;11.00;4.13;;;;;;;18.17;42.17;98904.00;5004003;28;20071;-93
2022/04/22 11:01:47;;;;;;;8.77;3.60;;;;;;;18.00;42.83;98883.09;5020034;28;20037;-92
2022/04/22 11:04:20;;;;;;;8.45;3.40;;;;;;;17.84;43.10;98871.19;5005528;28;20129;-92
2022/04/22 11:06:46;;;;;;;8.73;3.42;;;;;;;17.84;42.46;98877.41;5022044;28;20029;-93
2022/04/22 11:09:27;;;;;;;10.93;3.78;;;;;;;17.93;41.81;98885.56;5021807;28;20036;-92
2022/04/22 11:11:53;;;;;;;6.30;2.87;;;;;;;17.93;42.21;98888.28;5020467;28;20025;-92
2022/04/22 11:14:21;;;;;;;15.45;3.30;;;;;;;17.88;43.64;98886.53;5003311;28;20777;-91
2022/04/22 11:16:47;;;;;;;11.88;6.55;;;;;;;17.91;43.44;98891.34;5037513;28;20095;-92
2022/04/22 11:19:22;;;;;;;8.60;2.95;;;;;;;17.88;43.78;98908.31;5023777;28;20026;-93
2022/04/22 11:22:07;;;;;;;11.52;3.15;;;;;;;17.73;44.15;98868.00;5022923;28;20042;-93
2022/04/22 11:24:33;;;;;;;13.38;6.25;;;;;;;17.94;43.73;98876.25;5024963;28;20025;-92
2022/04/22 11:27:06;;;;;;;14.43;5.20;;;;;;;18.17;43.20;98877.53;5038640;28;20096;-91
2022/04/22 11:29:32;;;;;;;13.38;4.47;;;;;;;18.27;43.83;98873.63;5022229;28;20037;-92
2022/04/22 11:32:03;;;;;;;5.85;3.20;;;;;;;18.32;42.81;98888.97;5006175;28;20112;-93
2022/04/22 11:34:55;;;;;;;14.43;4.65;;;;;;;18.36;42.45;98884.47;5021683;28;20036;-93
2022/04/22 11:37:24;;;;;;;16.85;4.03;;;;;;;18.09;42.11;98867.50;5041316;28;20037;-93
2022/04/22 11:39:53;;;;;;;19.13;5.30;;;;;;;18.09;42.81;98858.53;5008129;28;20036;-93
2022/04/22 11:42:19;;;;;;;9.50;3.05;;;;;;;17.76;42.80;98849.09;5037342;28;20025;-92
2022/04/22 11:45:00;;;;;;;19.70;3.97;;;;;;;17.93;42.95;98847.44;5019997;28;20052;-92
2022/04/22 11:47:25;;;;;;;12.18;3.67;;;;;;;17.79;42.19;98836.75;5020379;28;20045;-92
2022/04/22 11:49:57;;;;;;;26.50;6.85;;;;;;;17.85;43.04;98831.94;5021628;28;20476;-93
2022/04/22 11:52:23;;;;;;;11.90;4.30;;;;;;;17.88;42.42;98834.78;5001796;28;20032;-88
2022/04/22 11:54:51;;;;;;;11.35;2.90;;;;;;;17.88;41.92;98815.72;5018696;28;20018;-88
2022/04/22 11:57:17;;;;;;;8.90;3.03;;;;;;;17.74;41.90;98815.13;5001415;28;20068;-88
2022/04/22 12:05:31;;;;;;;8.32;3.00;;;;;;;17.93;41.44;98803.84;5034871;28;20029;-87
2022/04/22 12:05:34;;;;;;;12.20;3.65;;;;;;;18.01;41.49;98792.06;5022231;28;20028;-88
2022/04/22 12:08:07;;;;;;;14.85;3.20;;;;;;;18.11;41.13;98793.59;5021790;28;20029;-88
2022/04/22 12:10:33;;;;;;;12.93;3.28;;;;;;;18.13;41.42;98785.88;5034870;28;20048;-88
2022/04/22 12:13:02;;;;;;;11.43;4.35;;;;;;;18.16;41.49;98788.75;5018848;28;20033;-88
2022/04/22 12:15:28;;;;;;;16.55;4.13;;;;;;;18.30;41.33;98790.41;5019070;28;20021;-89